sensor_id;sensor_type;location;lat;lon;timestamp;temperature;humidity
12386;DHT22;6257;57.634;18.310;2023-06-14T00:01:22;9.70;99.90
12386;DHT22;6257;57.634;18.310;2023-06-14T00:03:49;9.60;99.90
12386;DHT22;6257;57.634;18.310;2023-06-14T00:06:16;9.60;99.90
12386;DHT22;6257;57.634;18.310;2023-06-14T00:08:44;9.60;99.90
12386;DHT22;6257;57.634;18.310;2023-06-14T00:11:11;9.50;99.90
12386;DHT22;6257;57.634;18.310;2023-06-14T00:16:07;9.40;99.90
12386;DHT22;6257;57.634;18.310;2023-06-14T00:18:34;9.50;99.90
12386;DHT22;6257;57.634;18.310;2023-06-14T00:21:02;9.40;99.90
12386;DHT22;6257;57.634;18.310;2023-06-14T00:23:29;9.40;99.90
12386;DHT22;6257;57.634;18.310;2023-06-14T00:25:56;9.40;99.90
12386;DHT22;6257;57.634;18.310;2023-06-14T00:28:23;9.40;99.90
12386;DHT22;6257;57.634;18.310;2023-06-14T00:33:19;9.40;99.90
12386;DHT22;6257;57.634;18.310;2023-06-14T00:38:14;9.20;99.90
12386;DHT22;6257;57.634;18.310;2023-06-14T00:40:41;9.10;99.90
12386;DHT22;6257;57.634;18.310;2023-06-14T00:43:08;9.00;99.90
12386;DHT22;6257;57.634;18.310;2023-06-14T00:45:35;9.00;99.90
12386;DHT22;6257;57.634;18.310;2023-06-14T00:48:04;9.10;99.90
12386;DHT22;6257;57.634;18.310;2023-06-14T00:50:33;9.00;99.90
12386;DHT22;6257;57.634;18.310;2023-06-14T00:53:00;8.90;99.90
12386;DHT22;6257;57.634;18.310;2023-06-14T01:08:08;8.80;99.90
12386;DHT22;6257;57.634;18.310;2023-06-14T01:10:43;8.70;99.90
12386;DHT22;6257;57.634;18.310;2023-06-14T01:13:18;8.70;99.90
12386;DHT22;6257;57.634;18.310;2023-06-14T01:18:14;8.70;99.90
12386;DHT22;6257;57.634;18.310;2023-06-14T01:23:16;8.50;99.90
12386;DHT22;6257;57.634;18.310;2023-06-14T01:25:43;8.50;99.90
12386;DHT22;6257;57.634;18.310;2023-06-14T01:28:11;8.50;99.90
12386;DHT22;6257;57.634;18.310;2023-06-14T01:30:41;8.50;99.90
12386;DHT22;6257;57.634;18.310;2023-06-14T01:33:11;8.40;99.90
12386;DHT22;6257;57.634;18.310;2023-06-14T01:35:39;8.40;99.90
12386;DHT22;6257;57.634;18.310;2023-06-14T01:38:07;8.40;99.90
12386;DHT22;6257;57.634;18.310;2023-06-14T01:40:36;8.40;99.90
12386;DHT22;6257;57.634;18.310;2023-06-14T01:43:05;8.30;99.90
12386;DHT22;6257;57.634;18.310;2023-06-14T01:45:34;8.30;99.90
12386;DHT22;6257;57.634;18.310;2023-06-14T01:48:01;8.30;99.90
12386;DHT22;6257;57.634;18.310;2023-06-14T01:50:30;8.20;99.90
12386;DHT22;6257;57.634;18.310;2023-06-14T01:52:57;8.20;99.90
12386;DHT22;6257;57.634;18.310;2023-06-14T01:55:24;8.20;99.90
12386;DHT22;6257;57.634;18.310;2023-06-14T02:00:20;8.10;99.90
12386;DHT22;6257;57.634;18.310;2023-06-14T02:02:47;8.10;99.90
12386;DHT22;6257;57.634;18.310;2023-06-14T02:05:15;8.10;99.90
12386;DHT22;6257;57.634;18.310;2023-06-14T02:07:44;8.10;99.90
12386;DHT22;6257;57.634;18.310;2023-06-14T02:10:12;8.10;99.90
12386;DHT22;6257;57.634;18.310;2023-06-14T02:12:40;8.20;99.90
12386;DHT22;6257;57.634;18.310;2023-06-14T02:15:09;8.20;99.90
12386;DHT22;6257;57.634;18.310;2023-06-14T02:17:42;8.20;99.90
12386;DHT22;6257;57.634;18.310;2023-06-14T02:20:10;8.20;99.90
12386;DHT22;6257;57.634;18.310;2023-06-14T02:22:37;8.20;99.90
12386;DHT22;6257;57.634;18.310;2023-06-14T02:25:04;8.20;99.90
12386;DHT22;6257;57.634;18.310;2023-06-14T02:27:32;8.20;99.90
12386;DHT22;6257;57.634;18.310;2023-06-14T02:29:59;8.30;99.90
12386;DHT22;6257;57.634;18.310;2023-06-14T02:34:55;8.30;99.90
12386;DHT22;6257;57.634;18.310;2023-06-14T02:37:22;8.40;99.90
12386;DHT22;6257;57.634;18.310;2023-06-14T02:39:49;8.40;99.90
12386;DHT22;6257;57.634;18.310;2023-06-14T02:42:16;8.40;99.90
12386;DHT22;6257;57.634;18.310;2023-06-14T02:44:43;8.50;99.90
12386;DHT22;6257;57.634;18.310;2023-06-14T02:47:12;8.50;99.90
12386;DHT22;6257;57.634;18.310;2023-06-14T02:49:40;8.70;99.90
12386;DHT22;6257;57.634;18.310;2023-06-14T02:52:07;8.70;99.90
12386;DHT22;6257;57.634;18.310;2023-06-14T02:54:34;8.70;99.90
12386;DHT22;6257;57.634;18.310;2023-06-14T03:04:24;8.90;99.90
12386;DHT22;6257;57.634;18.310;2023-06-14T03:09:21;9.10;99.90
12386;DHT22;6257;57.634;18.310;2023-06-14T03:16:44;9.40;99.90
12386;DHT22;6257;57.634;18.310;2023-06-14T03:19:11;9.50;99.90
12386;DHT22;6257;57.634;18.310;2023-06-14T03:26:38;9.80;99.90
12386;DHT22;6257;57.634;18.310;2023-06-14T03:29:05;9.90;99.90
12386;DHT22;6257;57.634;18.310;2023-06-14T03:31:31;10.00;99.90
12386;DHT22;6257;57.634;18.310;2023-06-14T03:33:59;10.20;99.90
12386;DHT22;6257;57.634;18.310;2023-06-14T03:36:26;10.30;99.90
12386;DHT22;6257;57.634;18.310;2023-06-14T03:38:53;10.40;99.90
12386;DHT22;6257;57.634;18.310;2023-06-14T03:41:22;10.70;99.90
12386;DHT22;6257;57.634;18.310;2023-06-14T03:43:49;11.00;99.90
12386;DHT22;6257;57.634;18.310;2023-06-14T03:46:16;11.30;99.90
12386;DHT22;6257;57.634;18.310;2023-06-14T03:48:43;11.50;99.90
12386;DHT22;6257;57.634;18.310;2023-06-14T03:51:10;11.80;99.90
12386;DHT22;6257;57.634;18.310;2023-06-14T03:53:37;12.00;99.90
12386;DHT22;6257;57.634;18.310;2023-06-14T03:56:04;12.20;99.90
12386;DHT22;6257;57.634;18.310;2023-06-14T03:58:34;12.30;99.90
12386;DHT22;6257;57.634;18.310;2023-06-14T04:01:01;12.50;99.90
12386;DHT22;6257;57.634;18.310;2023-06-14T04:03:28;12.60;99.90
12386;DHT22;6257;57.634;18.310;2023-06-14T04:05:55;12.70;99.90
12386;DHT22;6257;57.634;18.310;2023-06-14T04:08:25;12.70;99.90
12386;DHT22;6257;57.634;18.310;2023-06-14T04:10:52;12.80;99.90
12386;DHT22;6257;57.634;18.310;2023-06-14T04:13:19;12.90;99.90
12386;DHT22;6257;57.634;18.310;2023-06-14T04:15:48;12.90;99.90
12386;DHT22;6257;57.634;18.310;2023-06-14T04:18:15;13.00;99.90
12386;DHT22;6257;57.634;18.310;2023-06-14T04:20:42;13.00;99.90
12386;DHT22;6257;57.634;18.310;2023-06-14T04:23:12;13.10;99.90
12386;DHT22;6257;57.634;18.310;2023-06-14T04:25:40;13.20;99.90
12386;DHT22;6257;57.634;18.310;2023-06-14T04:28:11;13.30;99.90
12386;DHT22;6257;57.634;18.310;2023-06-14T04:30:41;13.30;99.90
12386;DHT22;6257;57.634;18.310;2023-06-14T04:35:39;13.50;99.90
12386;DHT22;6257;57.634;18.310;2023-06-14T04:38:06;13.70;99.90
12386;DHT22;6257;57.634;18.310;2023-06-14T04:40:35;13.70;99.90
12386;DHT22;6257;57.634;18.310;2023-06-14T04:43:08;13.80;99.90
12386;DHT22;6257;57.634;18.310;2023-06-14T04:45:38;14.00;99.90
12386;DHT22;6257;57.634;18.310;2023-06-14T04:48:06;14.20;99.90
12386;DHT22;6257;57.634;18.310;2023-06-14T04:50:34;14.40;99.90
12386;DHT22;6257;57.634;18.310;2023-06-14T04:53:01;14.70;98.70
12386;DHT22;6257;57.634;18.310;2023-06-14T04:55:28;14.90;98.80
12386;DHT22;6257;57.634;18.310;2023-06-14T04:57:56;15.10;99.70
12386;DHT22;6257;57.634;18.310;2023-06-14T05:00:23;15.10;98.90
12386;DHT22;6257;57.634;18.310;2023-06-14T05:02:50;15.20;98.80
12386;DHT22;6257;57.634;18.310;2023-06-14T05:05:19;15.30;99.40
12386;DHT22;6257;57.634;18.310;2023-06-14T05:10:15;15.50;98.60
12386;DHT22;6257;57.634;18.310;2023-06-14T05:12:42;15.50;98.60
12386;DHT22;6257;57.634;18.310;2023-06-14T05:15:10;15.60;99.60
12386;DHT22;6257;57.634;18.310;2023-06-14T05:17:37;15.60;98.60
12386;DHT22;6257;57.634;18.310;2023-06-14T05:20:07;15.70;97.50
12386;DHT22;6257;57.634;18.310;2023-06-14T05:22:35;15.90;97.40
12386;DHT22;6257;57.634;18.310;2023-06-14T05:25:04;16.00;97.30
12386;DHT22;6257;57.634;18.310;2023-06-14T05:27:32;16.20;96.70
12386;DHT22;6257;57.634;18.310;2023-06-14T05:30:01;16.30;96.80
12386;DHT22;6257;57.634;18.310;2023-06-14T05:32:29;16.40;95.30
12386;DHT22;6257;57.634;18.310;2023-06-14T05:34:56;16.60;92.90
12386;DHT22;6257;57.634;18.310;2023-06-14T05:37:23;16.80;93.50
12386;DHT22;6257;57.634;18.310;2023-06-14T05:39:50;17.10;91.80
12386;DHT22;6257;57.634;18.310;2023-06-14T05:42:19;17.20;92.80
12386;DHT22;6257;57.634;18.310;2023-06-14T05:44:46;17.30;93.00
12386;DHT22;6257;57.634;18.310;2023-06-14T05:47:13;17.50;92.80
12386;DHT22;6257;57.634;18.310;2023-06-14T05:49:40;17.60;91.10
12386;DHT22;6257;57.634;18.310;2023-06-14T05:52:08;17.80;92.00
12386;DHT22;6257;57.634;18.310;2023-06-14T05:54:35;17.90;89.20
12386;DHT22;6257;57.634;18.310;2023-06-14T05:57:03;18.10;90.00
12386;DHT22;6257;57.634;18.310;2023-06-14T06:02:00;18.30;89.60
12386;DHT22;6257;57.634;18.310;2023-06-14T06:04:27;18.40;90.00
12386;DHT22;6257;57.634;18.310;2023-06-14T06:06:54;18.50;89.60
12386;DHT22;6257;57.634;18.310;2023-06-14T06:09:21;18.60;86.40
12386;DHT22;6257;57.634;18.310;2023-06-14T06:11:48;18.60;90.10
12386;DHT22;6257;57.634;18.310;2023-06-14T06:14:16;18.60;90.00
12386;DHT22;6257;57.634;18.310;2023-06-14T06:19:12;18.80;84.30
12386;DHT22;6257;57.634;18.310;2023-06-14T06:21:39;19.00;83.90
12386;DHT22;6257;57.634;18.310;2023-06-14T06:24:06;19.10;82.30
12386;DHT22;6257;57.634;18.310;2023-06-14T06:26:33;19.10;80.30
12386;DHT22;6257;57.634;18.310;2023-06-14T06:29:00;19.10;86.30
12386;DHT22;6257;57.634;18.310;2023-06-14T06:31:27;19.10;81.70
12386;DHT22;6257;57.634;18.310;2023-06-14T06:36:23;19.40;86.00
12386;DHT22;6257;57.634;18.310;2023-06-14T06:38:50;19.60;79.60
12386;DHT22;6257;57.634;18.310;2023-06-14T06:41:19;19.60;82.90
12386;DHT22;6257;57.634;18.310;2023-06-14T06:43:46;19.90;86.60
12386;DHT22;6257;57.634;18.310;2023-06-14T06:46:13;20.00;86.90
12386;DHT22;6257;57.634;18.310;2023-06-14T06:48:40;20.20;86.90
12386;DHT22;6257;57.634;18.310;2023-06-14T06:53:35;20.30;84.60
12386;DHT22;6257;57.634;18.310;2023-06-14T06:56:03;20.30;84.40
12386;DHT22;6257;57.634;18.310;2023-06-14T06:58:30;20.40;85.40
12386;DHT22;6257;57.634;18.310;2023-06-14T07:00:58;20.50;80.40
12386;DHT22;6257;57.634;18.310;2023-06-14T07:03:25;20.70;85.20
12386;DHT22;6257;57.634;18.310;2023-06-14T07:05:52;20.90;83.20
12386;DHT22;6257;57.634;18.310;2023-06-14T07:10:48;21.20;81.00
12386;DHT22;6257;57.634;18.310;2023-06-14T07:13:15;21.30;80.90
12386;DHT22;6257;57.634;18.310;2023-06-14T07:15:42;21.30;81.00
12386;DHT22;6257;57.634;18.310;2023-06-14T07:18:09;21.30;79.90
12386;DHT22;6257;57.634;18.310;2023-06-14T07:20:36;21.30;83.20
12386;DHT22;6257;57.634;18.310;2023-06-14T07:23:04;21.40;85.40
12386;DHT22;6257;57.634;18.310;2023-06-14T07:25:33;21.70;82.40
12386;DHT22;6257;57.634;18.310;2023-06-14T07:28:00;22.00;82.30
12386;DHT22;6257;57.634;18.310;2023-06-14T07:30:27;22.20;81.80
12386;DHT22;6257;57.634;18.310;2023-06-14T07:32:55;22.30;80.80
12386;DHT22;6257;57.634;18.310;2023-06-14T07:35:23;22.40;82.40
12386;DHT22;6257;57.634;18.310;2023-06-14T07:37:50;22.60;81.00
12386;DHT22;6257;57.634;18.310;2023-06-14T07:40:18;22.80;78.60
12386;DHT22;6257;57.634;18.310;2023-06-14T07:42:47;22.70;77.40
12386;DHT22;6257;57.634;18.310;2023-06-14T07:45:16;22.80;79.40
12386;DHT22;6257;57.634;18.310;2023-06-14T07:47:43;23.00;79.70
12386;DHT22;6257;57.634;18.310;2023-06-14T07:50:10;23.30;80.40
12386;DHT22;6257;57.634;18.310;2023-06-14T07:52:38;23.50;77.00
12386;DHT22;6257;57.634;18.310;2023-06-14T07:55:06;23.40;77.40
12386;DHT22;6257;57.634;18.310;2023-06-14T07:57:33;23.40;77.70
12386;DHT22;6257;57.634;18.310;2023-06-14T08:02:31;23.90;72.90
12386;DHT22;6257;57.634;18.310;2023-06-14T08:04:58;24.20;74.70
12386;DHT22;6257;57.634;18.310;2023-06-14T08:07:25;24.70;73.80
12386;DHT22;6257;57.634;18.310;2023-06-14T08:09:53;24.90;73.20
12386;DHT22;6257;57.634;18.310;2023-06-14T08:12:20;24.80;70.80
12386;DHT22;6257;57.634;18.310;2023-06-14T08:14:47;24.70;73.10
12386;DHT22;6257;57.634;18.310;2023-06-14T08:19:42;24.80;72.20
12386;DHT22;6257;57.634;18.310;2023-06-14T08:22:09;24.80;71.70
12386;DHT22;6257;57.634;18.310;2023-06-14T08:24:38;24.30;70.40
12386;DHT22;6257;57.634;18.310;2023-06-14T08:27:06;23.60;72.40
12386;DHT22;6257;57.634;18.310;2023-06-14T08:29:33;23.10;71.10
12386;DHT22;6257;57.634;18.310;2023-06-14T08:32:00;23.00;70.60
12386;DHT22;6257;57.634;18.310;2023-06-14T08:36:56;23.20;75.40
12386;DHT22;6257;57.634;18.310;2023-06-14T08:39:23;23.20;79.20
12386;DHT22;6257;57.634;18.310;2023-06-14T08:41:52;23.30;77.10
12386;DHT22;6257;57.634;18.310;2023-06-14T08:44:20;23.30;75.40
12386;DHT22;6257;57.634;18.310;2023-06-14T08:46:49;23.00;77.90
12386;DHT22;6257;57.634;18.310;2023-06-14T08:49:20;22.90;78.60
12386;DHT22;6257;57.634;18.310;2023-06-14T08:51:51;22.90;78.30
12386;DHT22;6257;57.634;18.310;2023-06-14T08:54:23;23.00;81.20
12386;DHT22;6257;57.634;18.310;2023-06-14T08:56:54;22.90;85.20
12386;DHT22;6257;57.634;18.310;2023-06-14T08:59:24;22.50;82.40
12386;DHT22;6257;57.634;18.310;2023-06-14T09:01:52;22.20;84.70
12386;DHT22;6257;57.634;18.310;2023-06-14T09:04:20;22.00;81.30
12386;DHT22;6257;57.634;18.310;2023-06-14T09:06:47;22.00;82.80
12386;DHT22;6257;57.634;18.310;2023-06-14T09:09:22;21.90;81.00
12386;DHT22;6257;57.634;18.310;2023-06-14T09:11:50;21.60;79.50
12386;DHT22;6257;57.634;18.310;2023-06-14T09:14:17;21.50;79.20
12386;DHT22;6257;57.634;18.310;2023-06-14T09:16:44;21.50;77.70
12386;DHT22;6257;57.634;18.310;2023-06-14T09:19:20;21.60;78.20
12386;DHT22;6257;57.634;18.310;2023-06-14T09:21:48;21.60;78.30
12386;DHT22;6257;57.634;18.310;2023-06-14T09:24:15;21.70;79.80
12386;DHT22;6257;57.634;18.310;2023-06-14T09:26:47;21.60;79.50
12386;DHT22;6257;57.634;18.310;2023-06-14T09:29:16;21.60;79.50
12386;DHT22;6257;57.634;18.310;2023-06-14T09:31:46;21.70;78.70
12386;DHT22;6257;57.634;18.310;2023-06-14T09:34:13;21.70;76.00
12386;DHT22;6257;57.634;18.310;2023-06-14T09:36:43;21.60;79.20
12386;DHT22;6257;57.634;18.310;2023-06-14T09:39:10;21.60;78.30
12386;DHT22;6257;57.634;18.310;2023-06-14T09:41:39;21.60;79.80
12386;DHT22;6257;57.634;18.310;2023-06-14T09:44:08;21.60;78.10
12386;DHT22;6257;57.634;18.310;2023-06-14T09:46:36;21.60;77.90
12386;DHT22;6257;57.634;18.310;2023-06-14T09:49:04;21.60;79.30
12386;DHT22;6257;57.634;18.310;2023-06-14T09:51:31;21.40;80.50
12386;DHT22;6257;57.634;18.310;2023-06-14T09:54:00;21.40;77.70
12386;DHT22;6257;57.634;18.310;2023-06-14T09:56:32;21.30;77.90
12386;DHT22;6257;57.634;18.310;2023-06-14T09:59:04;21.30;77.20
12386;DHT22;6257;57.634;18.310;2023-06-14T10:01:35;21.60;74.60
12386;DHT22;6257;57.634;18.310;2023-06-14T10:04:04;21.60;75.20
12386;DHT22;6257;57.634;18.310;2023-06-14T10:06:35;21.70;75.10
12386;DHT22;6257;57.634;18.310;2023-06-14T10:09:04;21.70;74.00
12386;DHT22;6257;57.634;18.310;2023-06-14T10:11:35;21.60;74.40
12386;DHT22;6257;57.634;18.310;2023-06-14T10:14:04;21.40;74.50
12386;DHT22;6257;57.634;18.310;2023-06-14T10:16:38;21.20;73.90
12386;DHT22;6257;57.634;18.310;2023-06-14T10:19:11;21.10;76.90
12386;DHT22;6257;57.634;18.310;2023-06-14T10:21:46;21.20;74.40
12386;DHT22;6257;57.634;18.310;2023-06-14T10:24:20;21.20;75.20
12386;DHT22;6257;57.634;18.310;2023-06-14T10:26:51;21.20;76.20
12386;DHT22;6257;57.634;18.310;2023-06-14T10:29:18;21.30;75.30
12386;DHT22;6257;57.634;18.310;2023-06-14T10:31:48;21.20;76.40
12386;DHT22;6257;57.634;18.310;2023-06-14T10:34:22;21.10;76.90
12386;DHT22;6257;57.634;18.310;2023-06-14T10:37:02;21.30;75.00
12386;DHT22;6257;57.634;18.310;2023-06-14T10:39:29;21.30;76.40
12386;DHT22;6257;57.634;18.310;2023-06-14T10:41:57;21.10;78.50
12386;DHT22;6257;57.634;18.310;2023-06-14T10:44:40;21.10;80.20
12386;DHT22;6257;57.634;18.310;2023-06-14T10:47:13;21.00;79.40
12386;DHT22;6257;57.634;18.310;2023-06-14T10:49:51;21.00;78.50
12386;DHT22;6257;57.634;18.310;2023-06-14T10:52:22;21.00;77.90
12386;DHT22;6257;57.634;18.310;2023-06-14T10:55:14;21.00;77.40
12386;DHT22;6257;57.634;18.310;2023-06-14T10:57:44;20.90;77.70
12386;DHT22;6257;57.634;18.310;2023-06-14T11:00:14;21.00;76.70
12386;DHT22;6257;57.634;18.310;2023-06-14T11:05:56;21.10;77.10
12386;DHT22;6257;57.634;18.310;2023-06-14T11:11:22;21.20;76.30
12386;DHT22;6257;57.634;18.310;2023-06-14T11:13:50;21.20;74.10
12386;DHT22;6257;57.634;18.310;2023-06-14T11:16:26;21.30;73.60
12386;DHT22;6257;57.634;18.310;2023-06-14T11:18:53;21.30;74.00
12386;DHT22;6257;57.634;18.310;2023-06-14T11:21:23;21.30;73.10
12386;DHT22;6257;57.634;18.310;2023-06-14T11:23:51;21.30;74.50
12386;DHT22;6257;57.634;18.310;2023-06-14T11:26:26;21.40;73.50
12386;DHT22;6257;57.634;18.310;2023-06-14T11:28:56;21.50;75.40
12386;DHT22;6257;57.634;18.310;2023-06-14T11:31:24;21.40;76.90
12386;DHT22;6257;57.634;18.310;2023-06-14T11:33:51;21.50;78.00
12386;DHT22;6257;57.634;18.310;2023-06-14T11:36:20;21.50;80.70
12386;DHT22;6257;57.634;18.310;2023-06-14T11:38:48;21.50;81.40
12386;DHT22;6257;57.634;18.310;2023-06-14T11:41:15;21.50;82.40
12386;DHT22;6257;57.634;18.310;2023-06-14T11:43:43;21.60;76.30
12386;DHT22;6257;57.634;18.310;2023-06-14T11:46:13;21.40;76.60
12386;DHT22;6257;57.634;18.310;2023-06-14T11:48:42;21.20;80.10
12386;DHT22;6257;57.634;18.310;2023-06-14T11:51:09;21.10;81.80
12386;DHT22;6257;57.634;18.310;2023-06-14T11:53:37;21.00;82.30
12386;DHT22;6257;57.634;18.310;2023-06-14T11:56:06;21.10;81.80
12386;DHT22;6257;57.634;18.310;2023-06-14T11:58:33;21.20;79.00
12386;DHT22;6257;57.634;18.310;2023-06-14T12:01:00;21.40;77.90
12386;DHT22;6257;57.634;18.310;2023-06-14T12:03:29;21.50;75.90
12386;DHT22;6257;57.634;18.310;2023-06-14T12:06:04;21.60;75.20
12386;DHT22;6257;57.634;18.310;2023-06-14T12:08:33;21.60;77.60
12386;DHT22;6257;57.634;18.310;2023-06-14T12:11:06;21.50;78.20
12386;DHT22;6257;57.634;18.310;2023-06-14T12:13:34;21.40;80.80
12386;DHT22;6257;57.634;18.310;2023-06-14T12:16:04;21.40;83.60
12386;DHT22;6257;57.634;18.310;2023-06-14T12:18:32;21.40;86.70
12386;DHT22;6257;57.634;18.310;2023-06-14T12:21:00;21.40;89.80
12386;DHT22;6257;57.634;18.310;2023-06-14T12:23:39;21.50;85.10
12386;DHT22;6257;57.634;18.310;2023-06-14T12:26:07;21.40;90.50
12386;DHT22;6257;57.634;18.310;2023-06-14T12:28:34;21.20;90.10
12386;DHT22;6257;57.634;18.310;2023-06-14T12:31:01;21.00;90.50
12386;DHT22;6257;57.634;18.310;2023-06-14T12:33:29;21.00;91.10
12386;DHT22;6257;57.634;18.310;2023-06-14T12:35:56;21.10;91.40
12386;DHT22;6257;57.634;18.310;2023-06-14T12:38:24;21.20;92.20
12386;DHT22;6257;57.634;18.310;2023-06-14T12:40:51;21.30;90.20
12386;DHT22;6257;57.634;18.310;2023-06-14T12:43:20;21.40;89.30
12386;DHT22;6257;57.634;18.310;2023-06-14T12:45:47;21.50;87.90
12386;DHT22;6257;57.634;18.310;2023-06-14T12:48:14;21.40;89.10
12386;DHT22;6257;57.634;18.310;2023-06-14T12:50:41;21.40;87.70
12386;DHT22;6257;57.634;18.310;2023-06-14T12:53:08;21.40;85.60
12386;DHT22;6257;57.634;18.310;2023-06-14T12:55:35;21.30;83.50
12386;DHT22;6257;57.634;18.310;2023-06-14T12:58:02;21.20;85.20
12386;DHT22;6257;57.634;18.310;2023-06-14T13:00:31;21.20;86.20
12386;DHT22;6257;57.634;18.310;2023-06-14T13:02:58;21.30;87.90
12386;DHT22;6257;57.634;18.310;2023-06-14T13:05:25;21.30;91.00
12386;DHT22;6257;57.634;18.310;2023-06-14T13:07:52;21.10;91.20
12386;DHT22;6257;57.634;18.310;2023-06-14T13:10:19;21.10;90.20
12386;DHT22;6257;57.634;18.310;2023-06-14T13:12:46;21.10;89.30
12386;DHT22;6257;57.634;18.310;2023-06-14T13:15:13;21.10;86.10
12386;DHT22;6257;57.634;18.310;2023-06-14T13:17:41;21.20;84.30
12386;DHT22;6257;57.634;18.310;2023-06-14T13:20:14;21.20;84.80
12386;DHT22;6257;57.634;18.310;2023-06-14T13:22:42;21.10;83.50
12386;DHT22;6257;57.634;18.310;2023-06-14T13:25:09;21.10;87.20
12386;DHT22;6257;57.634;18.310;2023-06-14T13:27:36;21.10;84.30
12386;DHT22;6257;57.634;18.310;2023-06-14T13:30:04;21.10;83.70
12386;DHT22;6257;57.634;18.310;2023-06-14T13:32:32;21.10;83.10
12386;DHT22;6257;57.634;18.310;2023-06-14T13:35:00;21.10;83.80
12386;DHT22;6257;57.634;18.310;2023-06-14T13:37:27;21.10;83.50
12386;DHT22;6257;57.634;18.310;2023-06-14T13:39:55;21.10;86.30
12386;DHT22;6257;57.634;18.310;2023-06-14T13:42:22;21.10;87.50
12386;DHT22;6257;57.634;18.310;2023-06-14T13:44:49;21.00;86.00
12386;DHT22;6257;57.634;18.310;2023-06-14T13:47:17;21.00;85.30
12386;DHT22;6257;57.634;18.310;2023-06-14T13:49:44;21.10;84.90
12386;DHT22;6257;57.634;18.310;2023-06-14T13:52:12;21.20;82.20
12386;DHT22;6257;57.634;18.310;2023-06-14T13:54:39;21.20;83.40
12386;DHT22;6257;57.634;18.310;2023-06-14T13:57:08;21.20;84.80
12386;DHT22;6257;57.634;18.310;2023-06-14T13:59:38;21.30;81.70
12386;DHT22;6257;57.634;18.310;2023-06-14T14:02:05;21.40;80.50
12386;DHT22;6257;57.634;18.310;2023-06-14T14:04:33;21.50;78.70
12386;DHT22;6257;57.634;18.310;2023-06-14T14:07:01;21.50;77.60
12386;DHT22;6257;57.634;18.310;2023-06-14T14:09:30;21.50;77.70
12386;DHT22;6257;57.634;18.310;2023-06-14T14:11:58;21.60;78.10
12386;DHT22;6257;57.634;18.310;2023-06-14T14:14:25;21.60;76.60
12386;DHT22;6257;57.634;18.310;2023-06-14T14:16:52;21.70;76.10
12386;DHT22;6257;57.634;18.310;2023-06-14T14:19:20;21.70;76.40
12386;DHT22;6257;57.634;18.310;2023-06-14T14:21:47;21.70;76.70
12386;DHT22;6257;57.634;18.310;2023-06-14T14:24:14;21.70;77.10
12386;DHT22;6257;57.634;18.310;2023-06-14T14:26:43;21.70;75.40
12386;DHT22;6257;57.634;18.310;2023-06-14T14:29:13;21.80;76.30
12386;DHT22;6257;57.634;18.310;2023-06-14T14:31:40;21.70;78.20
12386;DHT22;6257;57.634;18.310;2023-06-14T14:34:07;21.70;78.10
12386;DHT22;6257;57.634;18.310;2023-06-14T14:36:34;21.70;79.10
12386;DHT22;6257;57.634;18.310;2023-06-14T14:39:03;21.80;78.20
12386;DHT22;6257;57.634;18.310;2023-06-14T14:41:30;21.80;78.10
12386;DHT22;6257;57.634;18.310;2023-06-14T14:46:26;21.90;77.20
12386;DHT22;6257;57.634;18.310;2023-06-14T14:48:54;21.80;77.80
12386;DHT22;6257;57.634;18.310;2023-06-14T14:51:21;21.80;76.60
12386;DHT22;6257;57.634;18.310;2023-06-14T14:53:48;21.90;76.20
12386;DHT22;6257;57.634;18.310;2023-06-14T14:56:15;21.90;76.80
12386;DHT22;6257;57.634;18.310;2023-06-14T14:58:42;22.00;77.00
12386;DHT22;6257;57.634;18.310;2023-06-14T15:01:11;22.00;77.60
12386;DHT22;6257;57.634;18.310;2023-06-14T15:03:38;22.10;77.20
12386;DHT22;6257;57.634;18.310;2023-06-14T15:06:05;22.10;76.70
12386;DHT22;6257;57.634;18.310;2023-06-14T15:08:32;22.00;77.00
12386;DHT22;6257;57.634;18.310;2023-06-14T15:10:59;22.00;76.60
12386;DHT22;6257;57.634;18.310;2023-06-14T15:13:27;22.10;77.30
12386;DHT22;6257;57.634;18.310;2023-06-14T15:15:54;22.20;76.20
12386;DHT22;6257;57.634;18.310;2023-06-14T15:18:23;22.30;77.40
12386;DHT22;6257;57.634;18.310;2023-06-14T15:20:50;22.30;76.10
12386;DHT22;6257;57.634;18.310;2023-06-14T15:23:17;22.10;76.50
12386;DHT22;6257;57.634;18.310;2023-06-14T15:25:46;22.10;76.80
12386;DHT22;6257;57.634;18.310;2023-06-14T15:28:14;22.20;76.40
12386;DHT22;6257;57.634;18.310;2023-06-14T15:30:41;22.30;77.80
12386;DHT22;6257;57.634;18.310;2023-06-14T15:33:08;22.30;78.20
12386;DHT22;6257;57.634;18.310;2023-06-14T15:35:36;22.30;77.10
12386;DHT22;6257;57.634;18.310;2023-06-14T15:38:03;22.20;77.10
12386;DHT22;6257;57.634;18.310;2023-06-14T15:40:30;22.20;76.50
12386;DHT22;6257;57.634;18.310;2023-06-14T15:42:57;22.20;77.10
12386;DHT22;6257;57.634;18.310;2023-06-14T15:45:24;22.30;75.90
12386;DHT22;6257;57.634;18.310;2023-06-14T15:47:51;22.30;76.70
12386;DHT22;6257;57.634;18.310;2023-06-14T15:50:18;22.30;77.60
12386;DHT22;6257;57.634;18.310;2023-06-14T15:52:48;22.40;77.20
12386;DHT22;6257;57.634;18.310;2023-06-14T15:55:15;22.40;77.60
12386;DHT22;6257;57.634;18.310;2023-06-14T15:57:42;22.50;76.60
12386;DHT22;6257;57.634;18.310;2023-06-14T16:00:09;22.40;77.30
12386;DHT22;6257;57.634;18.310;2023-06-14T16:02:37;22.30;76.10
12386;DHT22;6257;57.634;18.310;2023-06-14T16:05:04;22.20;76.50
12386;DHT22;6257;57.634;18.310;2023-06-14T16:07:31;22.10;77.10
12386;DHT22;6257;57.634;18.310;2023-06-14T16:10:00;22.00;78.60
12386;DHT22;6257;57.634;18.310;2023-06-14T16:12:27;22.00;75.00
12386;DHT22;6257;57.634;18.310;2023-06-14T16:14:54;22.00;76.80
12386;DHT22;6257;57.634;18.310;2023-06-14T16:17:21;22.00;77.50
12386;DHT22;6257;57.634;18.310;2023-06-14T16:19:48;22.10;76.20
12386;DHT22;6257;57.634;18.310;2023-06-14T16:22:15;22.10;76.70
12386;DHT22;6257;57.634;18.310;2023-06-14T16:24:42;22.00;75.70
12386;DHT22;6257;57.634;18.310;2023-06-14T16:29:39;22.00;77.20
12386;DHT22;6257;57.634;18.310;2023-06-14T16:32:07;21.90;76.20
12386;DHT22;6257;57.634;18.310;2023-06-14T16:34:35;22.00;75.90
12386;DHT22;6257;57.634;18.310;2023-06-14T16:37:02;22.00;76.70
12386;DHT22;6257;57.634;18.310;2023-06-14T16:39:30;18.30;72.90
12386;DHT22;6257;57.634;18.310;2023-06-14T16:44:25;22.00;77.00
12386;DHT22;6257;57.634;18.310;2023-06-14T16:46:52;22.00;76.20
12386;DHT22;6257;57.634;18.310;2023-06-14T16:49:20;22.00;77.10
12386;DHT22;6257;57.634;18.310;2023-06-14T16:51:47;21.90;77.80
12386;DHT22;6257;57.634;18.310;2023-06-14T16:54:14;21.90;78.40
12386;DHT22;6257;57.634;18.310;2023-06-14T16:56:41;21.80;77.50
12386;DHT22;6257;57.634;18.310;2023-06-14T16:59:08;21.80;78.40
12386;DHT22;6257;57.634;18.310;2023-06-14T17:01:37;21.60;76.30
12386;DHT22;6257;57.634;18.310;2023-06-14T17:04:04;21.60;76.90
12386;DHT22;6257;57.634;18.310;2023-06-14T17:06:31;21.60;77.50